Time;durP1;ratioP1;P1;durP2;ratioP2;P2;SDS_P1;SDS_P2;PMS_P1;PMS_P2;Temp;Humidity;BMP_temperature;BMP_pressure;BME280_temperature;BME280_humidity;BME280_pressure;Samples;Min_cycle;Max_cycle;Signal;HPM_P1;HPM_P2
2023/06/02 00:00:52;;;;;;;19.80;3.83;;;;;;;;;;5065606;28;20060;-69
2023/06/02 00:03:18;;;;;;;18.85;3.60;;;;;;;;;;5066710;28;20078;-69
2023/06/02 00:05:46;;;;;;;20.73;3.13;;;;;;;;;;5067279;28;20525;-69
2023/06/02 00:08:12;;;;;;;16.70;3.55;;;;;;;;;;5069194;28;20044;-70
2023/06/02 00:10:39;;;;;;;29.52;4.20;;;;;;;;;;5065792;28;20043;-69
2023/06/02 00:13:07;;;;;;;22.73;3.38;;;;;;;;;;5064252;28;20052;-69
2023/06/02 00:15:34;;;;;;;18.95;3.38;;;;;;;;;;5065935;28;20040;-69
2023/06/02 00:18:00;;;;;;;27.38;3.50;;;;;;;;;;5068237;28;20054;-69
2023/06/02 00:20:26;;;;;;;20.75;3.70;;;;;;;;;;5065347;28;20044;-69
2023/06/02 00:22:54;;;;;;;15.93;3.33;;;;;;;;;;5069288;28;20044;-69
2023/06/02 00:25:20;;;;;;;19.13;3.15;;;;;;;;;;5060706;28;20051;-70
2023/06/02 00:27:46;;;;;;;30.30;3.38;;;;;;;;;;5062311;28;20064;-69
2023/06/02 00:30:13;;;;;;;25.58;4.47;;;;;;;;;;5062163;28;20084;-69
2023/06/02 00:32:39;;;;;;;18.92;3.40;;;;;;;;;;5059535;28;21925;-69
2023/06/02 00:35:05;;;;;;;16.65;2.72;;;;;;;;;;5061859;28;20499;-70
2023/06/02 00:37:31;;;;;;;20.88;3.05;;;;;;;;;;5060961;28;20054;-69
2023/06/02 00:39:57;;;;;;;19.25;2.85;;;;;;;;;;5063679;28;20036;-69
2023/06/02 00:42:23;;;;;;;18.63;4.07;;;;;;;;;;5057360;28;20248;-69
2023/06/02 00:44:49;;;;;;;24.00;3.30;;;;;;;;;;5062967;28;20044;-69
2023/06/02 00:47:15;;;;;;;23.17;3.80;;;;;;;;;;5062653;28;20072;-70
2023/06/02 00:49:42;;;;;;;17.50;3.35;;;;;;;;;;5062175;28;20040;-69
2023/06/02 00:52:09;;;;;;;21.63;3.22;;;;;;;;;;5063091;28;20498;-69
2023/06/02 00:54:35;;;;;;;22.30;3.20;;;;;;;;;;5062599;28;20515;-69
2023/06/02 00:57:01;;;;;;;27.33;4.53;;;;;;;;;;5060195;28;20043;-70
2023/06/02 00:59:28;;;;;;;22.13;3.78;;;;;;;;;;5056514;28;21806;-69
2023/06/02 01:01:54;;;;;;;21.63;3.70;;;;;;;;;;5061911;28;20052;-69
2023/06/02 01:04:21;;;;;;;22.58;3.63;;;;;;;;;;5059358;28;20054;-69
2023/06/02 01:06:48;;;;;;;18.17;3.80;;;;;;;;;;5063430;28;20122;-70
2023/06/02 01:09:16;;;;;;;17.30;2.97;;;;;;;;;;5063971;28;20036;-70
2023/06/02 01:11:43;;;;;;;25.85;3.13;;;;;;;;;;5063549;28;20055;-69
2023/06/02 01:14:12;;;;;;;22.65;3.85;;;;;;;;;;5065286;28;20048;-70
2023/06/02 01:16:38;;;;;;;25.15;4.25;;;;;;;;;;5041801;28;20300;-69
2023/06/02 01:19:06;;;;;;;17.77;3.55;;;;;;;;;;5063472;28;20047;-70
2023/06/02 01:21:37;;;;;;;19.85;3.38;;;;;;;;;;5063713;28;20044;-69
2023/06/02 01:24:03;;;;;;;23.83;3.78;;;;;;;;;;5065484;28;20403;-69
2023/06/02 01:26:34;;;;;;;25.13;3.58;;;;;;;;;;5064757;28;20080;-70
2023/06/02 01:29:03;;;;;;;22.38;3.72;;;;;;;;;;5066553;28;20063;-69
2023/06/02 01:31:37;;;;;;;22.65;4.13;;;;;;;;;;5066617;28;20224;-69
2023/06/02 01:34:09;;;;;;;30.77;4.57;;;;;;;;;;5063921;28;20052;-69
2023/06/02 01:36:37;;;;;;;23.95;3.30;;;;;;;;;;5067329;28;20048;-69
2023/06/02 01:39:04;;;;;;;19.88;3.05;;;;;;;;;;5067864;28;20103;-70
2023/06/02 01:41:31;;;;;;;24.30;3.80;;;;;;;;;;5068370;28;20052;-70
2023/06/02 01:43:59;;;;;;;18.92;4.32;;;;;;;;;;5069557;28;20460;-69
2023/06/02 01:46:26;;;;;;;22.67;4.53;;;;;;;;;;5068378;28;20054;-68
2023/06/02 01:48:55;;;;;;;24.27;4.05;;;;;;;;;;5062040;28;20127;-69
2023/06/02 01:51:22;;;;;;;20.25;3.53;;;;;;;;;;5059745;28;20048;-69
2023/06/02 01:53:48;;;;;;;20.77;3.70;;;;;;;;;;5061460;28;20090;-69
2023/06/02 01:56:14;;;;;;;34.35;3.80;;;;;;;;;;5065975;28;21913;-69
2023/06/02 01:58:40;;;;;;;20.73;3.42;;;;;;;;;;5064567;28;20127;-69
2023/06/02 02:01:07;;;;;;;23.52;3.55;;;;;;;;;;5067126;28;20167;-69
2023/06/02 02:03:33;;;;;;;21.05;3.05;;;;;;;;;;5066177;28;20044;-69
2023/06/02 02:05:59;;;;;;;22.30;3.95;;;;;;;;;;5063849;28;20055;-69
2023/06/02 02:08:25;;;;;;;22.63;3.95;;;;;;;;;;5069059;28;20050;-69
2023/06/02 02:10:51;;;;;;;20.45;4.07;;;;;;;;;;5061780;28;20889;-70
2023/06/02 02:13:17;;;;;;;21.83;3.90;;;;;;;;;;5067131;28;20139;-69
2023/06/02 02:15:44;;;;;;;23.52;3.47;;;;;;;;;;5066351;28;21997;-69
2023/06/02 02:18:10;;;;;;;25.23;4.63;;;;;;;;;;5064867;28;20522;-69
2023/06/02 02:20:42;;;;;;;24.38;3.78;;;;;;;;;;5069897;28;20048;-69
2023/06/02 02:23:08;;;;;;;22.10;3.22;;;;;;;;;;5051399;28;20166;-69
2023/06/02 02:25:34;;;;;;;18.23;3.55;;;;;;;;;;5073007;28;20059;-69
2023/06/02 02:28:00;;;;;;;26.92;4.30;;;;;;;;;;5063423;28;20040;-69
2023/06/02 02:30:26;;;;;;;26.45;3.67;;;;;;;;;;5062026;28;20051;-69
2023/06/02 02:32:55;;;;;;;23.08;4.00;;;;;;;;;;5056829;28;20162;-69
2023/06/02 02:35:21;;;;;;;24.63;3.53;;;;;;;;;;5062671;28;20047;-69
2023/06/02 02:37:47;;;;;;;26.02;3.60;;;;;;;;;;5062368;28;20051;-69
2023/06/02 02:40:13;;;;;;;23.63;3.83;;;;;;;;;;5061096;28;20044;-70
2023/06/02 02:42:40;;;;;;;27.63;4.38;;;;;;;;;;5061968;28;20048;-69
2023/06/02 02:45:07;;;;;;;26.50;3.67;;;;;;;;;;5060944;28;20073;-70
2023/06/02 02:47:33;;;;;;;28.27;4.20;;;;;;;;;;5062754;28;20131;-70
2023/06/02 02:49:59;;;;;;;21.83;4.13;;;;;;;;;;5060486;28;20040;-69
2023/06/02 02:52:27;;;;;;;32.13;4.55;;;;;;;;;;5063264;28;20052;-69
2023/06/02 02:54:53;;;;;;;21.90;4.40;;;;;;;;;;5064145;28;20063;-69
2023/06/02 02:57:19;;;;;;;24.33;4.20;;;;;;;;;;5062900;28;20040;-69
2023/06/02 02:59:45;;;;;;;17.55;3.45;;;;;;;;;;5060104;28;20052;-69
2023/06/02 03:02:12;;;;;;;26.85;4.95;;;;;;;;;;5061541;28;20048;-70
2023/06/02 03:04:41;;;;;;;19.05;3.65;;;;;;;;;;5063277;28;20048;-69
2023/06/02 03:07:07;;;;;;;16.85;3.53;;;;;;;;;;5063072;28;20055;-69
2023/06/02 03:09:33;;;;;;;32.00;4.20;;;;;;;;;;5060488;28;22029;-70
2023/06/02 03:11:59;;;;;;;22.40;3.45;;;;;;;;;;5059842;28;20085;-70
2023/06/02 03:14:28;;;;;;;26.70;4.45;;;;;;;;;;5060292;28;20117;-70
2023/06/02 03:16:54;;;;;;;24.77;4.35;;;;;;;;;;5060326;28;20191;-69
2023/06/02 03:19:23;;;;;;;28.20;3.95;;;;;;;;;;5060274;28;20112;-69
2023/06/02 03:21:51;;;;;;;20.33;4.97;;;;;;;;;;5060468;28;20615;-70
2023/06/02 03:24:18;;;;;;;30.85;5.22;;;;;;;;;;5055194;28;20093;-69
2023/06/02 03:26:44;;;;;;;28.52;4.75;;;;;;;;;;5060470;28;20048;-69
2023/06/02 03:29:11;;;;;;;24.52;4.90;;;;;;;;;;5056612;28;20052;-69
2023/06/02 03:31:37;;;;;;;25.65;4.60;;;;;;;;;;5055301;28;20040;-70
2023/06/02 03:34:04;;;;;;;25.38;5.00;;;;;;;;;;5059927;28;21951;-70
2023/06/02 03:36:37;;;;;;;29.95;4.63;;;;;;;;;;5058465;28;20126;-69
2023/06/02 03:39:07;;;;;;;20.98;4.65;;;;;;;;;;5064283;28;20041;-70
2023/06/02 03:41:34;;;;;;;30.35;5.13;;;;;;;;;;5073063;27;20044;-70
2023/06/02 03:44:00;;;;;;;33.15;4.95;;;;;;;;;;5060227;28;20090;-70
2023/06/02 03:46:26;;;;;;;23.92;5.28;;;;;;;;;;5060665;28;20117;-69
2023/06/02 03:48:52;;;;;;;23.52;3.85;;;;;;;;;;5061245;28;20044;-70
2023/06/02 03:51:18;;;;;;;28.73;4.35;;;;;;;;;;5060686;28;20047;-69
2023/06/02 03:53:45;;;;;;;30.48;4.72;;;;;;;;;;5062505;28;20125;-70
2023/06/02 03:56:14;;;;;;;29.25;4.75;;;;;;;;;;5058824;28;20887;-69
2023/06/02 03:58:40;;;;;;;29.13;6.22;;;;;;;;;;5057596;28;20320;-70
2023/06/02 04:01:06;;;;;;;22.48;4.82;;;;;;;;;;5058790;28;20381;-70
2023/06/02 04:03:36;;;;;;;23.45;5.20;;;;;;;;;;5059639;28;20051;-69
2023/06/02 04:06:03;;;;;;;30.08;4.78;;;;;;;;;;5059482;28;20055;-69
2023/06/02 04:08:29;;;;;;;29.67;6.45;;;;;;;;;;5061166;28;20082;-69
2023/06/02 04:10:55;;;;;;;27.30;5.53;;;;;;;;;;5059354;28;21883;-70
2023/06/02 04:13:22;;;;;;;29.83;8.07;;;;;;;;;;5055653;28;20054;-69
2023/06/02 04:15:48;;;;;;;30.55;5.05;;;;;;;;;;5043571;28;20047;-69
2023/06/02 04:18:14;;;;;;;24.13;4.70;;;;;;;;;;5043109;28;20032;-69
2023/06/02 04:20:40;;;;;;;33.38;5.60;;;;;;;;;;5060865;28;20071;-69
2023/06/02 04:23:06;;;;;;;33.40;5.70;;;;;;;;;;5061122;28;20097;-70
2023/06/02 04:25:32;;;;;;;29.40;5.30;;;;;;;;;;5057984;28;20051;-69
2023/06/02 04:27:58;;;;;;;24.50;5.38;;;;;;;;;;5058456;28;20052;-70
2023/06/02 04:30:24;;;;;;;25.23;4.80;;;;;;;;;;5058535;28;20043;-69
2023/06/02 04:32:51;;;;;;;44.70;5.63;;;;;;;;;;5059614;28;20104;-70
2023/06/02 04:35:17;;;;;;;41.83;5.95;;;;;;;;;;5034456;28;20048;-70
2023/06/02 04:37:46;;;;;;;33.25;5.60;;;;;;;;;;5061222;28;20237;-69
2023/06/02 04:40:14;;;;;;;37.47;5.82;;;;;;;;;;5058032;28;20851;-69
2023/06/02 04:42:40;;;;;;;40.22;6.30;;;;;;;;;;5057654;28;20055;-70
2023/06/02 04:45:16;;;;;;;39.53;5.65;;;;;;;;;;5055617;28;20984;-69
2023/06/02 04:47:42;;;;;;;28.77;4.43;;;;;;;;;;5059313;28;20052;-70
2023/06/02 04:50:09;;;;;;;33.22;5.97;;;;;;;;;;5054666;28;20040;-70
2023/06/02 04:52:42;;;;;;;34.72;6.43;;;;;;;;;;5052834;28;20075;-69
2023/06/02 04:55:09;;;;;;;27.30;5.05;;;;;;;;;;5058094;28;20480;-70
2023/06/02 04:57:36;;;;;;;29.85;6.35;;;;;;;;;;5055115;28;20130;-69
2023/06/02 05:00:06;;;;;;;23.95;5.32;;;;;;;;;;5058237;28;20072;-70
2023/06/02 05:02:33;;;;;;;36.72;7.35;;;;;;;;;;5059745;28;20043;-70
2023/06/02 05:04:59;;;;;;;25.20;4.88;;;;;;;;;;5059824;28;21871;-70
2023/06/02 05:07:27;;;;;;;31.58;5.32;;;;;;;;;;5058632;28;20051;-70
2023/06/02 05:09:53;;;;;;;27.08;5.03;;;;;;;;;;5056888;28;20045;-69
2023/06/02 05:12:19;;;;;;;24.88;5.30;;;;;;;;;;5057291;28;20048;-69
2023/06/02 05:14:45;;;;;;;31.45;4.63;;;;;;;;;;5057188;28;20048;-70
2023/06/02 05:17:11;;;;;;;28.17;4.70;;;;;;;;;;5059559;28;21716;-70
2023/06/02 05:19:42;;;;;;;26.52;4.82;;;;;;;;;;5056819;28;20462;-70
2023/06/02 05:22:08;;;;;;;31.20;5.45;;;;;;;;;;5060302;28;20036;-70
2023/06/02 05:24:34;;;;;;;28.45;4.97;;;;;;;;;;5051773;28;22462;-70
2023/06/02 05:27:00;;;;;;;28.88;4.70;;;;;;;;;;5059252;28;20171;-70
2023/06/02 05:29:26;;;;;;;33.05;5.20;;;;;;;;;;5055902;28;20050;-70
2023/06/02 05:31:52;;;;;;;33.90;4.68;;;;;;;;;;5057216;28;20069;-69
2023/06/02 05:34:19;;;;;;;28.63;5.65;;;;;;;;;;5058707;28;20059;-69
2023/06/02 05:36:45;;;;;;;35.05;5.70;;;;;;;;;;5055599;28;20048;-69
2023/06/02 05:39:11;;;;;;;36.22;5.78;;;;;;;;;;5057309;28;21725;-69
2023/06/02 05:41:37;;;;;;;31.85;5.57;;;;;;;;;;5051862;28;20043;-70
2023/06/02 05:44:03;;;;;;;28.75;5.30;;;;;;;;;;5053714;28;20039;-70
2023/06/02 05:46:29;;;;;;;34.22;5.68;;;;;;;;;;5051571;28;20048;-70
2023/06/02 05:48:56;;;;;;;36.80;5.93;;;;;;;;;;5054649;28;20040;-70
2023/06/02 05:51:22;;;;;;;32.20;4.43;;;;;;;;;;5057664;28;20069;-70
2023/06/02 05:53:49;;;;;;;25.92;5.18;;;;;;;;;;5056837;28;20043;-70
2023/06/02 05:56:16;;;;;;;37.17;5.03;;;;;;;;;;5060463;28;20584;-70
2023/06/02 05:58:42;;;;;;;24.88;5.00;;;;;;;;;;5061500;28;20044;-70
2023/06/02 06:01:11;;;;;;;28.48;4.38;;;;;;;;;;5062879;28;20052;-70
2023/06/02 06:03:37;;;;;;;37.70;5.28;;;;;;;;;;5053231;28;20385;-70
2023/06/02 06:06:04;;;;;;;30.15;5.28;;;;;;;;;;5061590;28;20060;-70
2023/06/02 06:08:30;;;;;;;29.60;4.13;;;;;;;;;;5061523;28;20040;-70
2023/06/02 06:10:56;;;;;;;27.55;4.45;;;;;;;;;;5063591;28;20572;-70
2023/06/02 06:13:22;;;;;;;23.90;4.78;;;;;;;;;;5062761;28;20048;-70
2023/06/02 06:15:48;;;;;;;24.23;5.22;;;;;;;;;;5061371;28;20483;-70
2023/06/02 06:18:14;;;;;;;28.05;4.03;;;;;;;;;;5063026;28;20044;-70
2023/06/02 06:20:43;;;;;;;24.08;3.97;;;;;;;;;;5061501;28;20068;-70
2023/06/02 06:23:10;;;;;;;28.67;4.47;;;;;;;;;;5064187;28;21917;-70
2023/06/02 06:25:37;;;;;;;27.77;4.30;;;;;;;;;;5063211;28;20048;-70
2023/06/02 06:28:03;;;;;;;17.40;4.30;;;;;;;;;;5060538;28;20050;-70
2023/06/02 06:30:29;;;;;;;27.20;4.22;;;;;;;;;;5062260;28;20044;-70
2023/06/02 06:32:59;;;;;;;22.33;3.45;;;;;;;;;;5062042;28;22000;-70
2023/06/02 06:35:25;;;;;;;16.48;3.30;;;;;;;;;;5061156;28;20048;-70
2023/06/02 06:37:52;;;;;;;19.83;3.40;;;;;;;;;;5063718;28;20081;-70
2023/06/02 06:40:18;;;;;;;14.90;2.80;;;;;;;;;;5062993;28;20032;-70
2023/06/02 06:42:44;;;;;;;19.77;3.25;;;;;;;;;;5062667;28;20093;-70
2023/06/02 06:45:10;;;;;;;25.08;3.63;;;;;;;;;;5062107;28;20296;-70
2023/06/02 06:47:36;;;;;;;16.35;3.35;;;;;;;;;;5062089;28;20764;-70
2023/06/02 06:50:02;;;;;;;14.70;2.80;;;;;;;;;;5062681;28;20055;-70
2023/06/02 06:52:28;;;;;;;20.67;3.17;;;;;;;;;;5076417;28;20040;-70
2023/06/02 06:54:54;;;;;;;13.10;3.50;;;;;;;;;;5067032;28;20944;-70
2023/06/02 06:57:21;;;;;;;15.85;2.55;;;;;;;;;;5066435;28;20642;-70
2023/06/02 06:59:47;;;;;;;14.15;2.10;;;;;;;;;;5065049;28;20048;-70
2023/06/02 07:02:13;;;;;;;7.18;2.13;;;;;;;;;;5041355;28;20167;-70
2023/06/02 07:04:40;;;;;;;6.40;1.95;;;;;;;;;;5064469;28;20132;-70
2023/06/02 07:07:06;;;;;;;7.50;1.90;;;;;;;;;;5065938;28;20037;-70
2023/06/02 07:09:32;;;;;;;7.03;1.70;;;;;;;;;;5067687;28;20586;-70
2023/06/02 07:11:58;;;;;;;6.85;2.20;;;;;;;;;;5066058;28;20035;-70
2023/06/02 07:14:25;;;;;;;10.18;2.25;;;;;;;;;;5064981;28;20100;-70
2023/06/02 07:16:54;;;;;;;6.47;1.70;;;;;;;;;;5065914;28;20040;-70
2023/06/02 07:19:20;;;;;;;5.45;1.45;;;;;;;;;;5067143;28;20166;-70
2023/06/02 07:21:46;;;;;;;4.53;1.38;;;;;;;;;;5067415;28;20048;-70
2023/06/02 07:24:12;;;;;;;4.75;1.25;;;;;;;;;;5059230;28;20457;-70
2023/06/02 07:26:38;;;;;;;10.40;1.33;;;;;;;;;;5063315;28;20081;-70
2023/06/02 07:29:05;;;;;;;11.82;1.83;;;;;;;;;;5066553;28;20059;-70
2023/06/02 07:31:31;;;;;;;14.02;1.85;;;;;;;;;;5064467;28;20149;-70
2023/06/02 07:33:57;;;;;;;10.40;1.50;;;;;;;;;;5066009;28;20048;-70
2023/06/02 07:36:24;;;;;;;6.70;1.58;;;;;;;;;;5061657;28;20036;-70
2023/06/02 07:38:51;;;;;;;6.40;1.83;;;;;;;;;;5063755;28;20090;-70
2023/06/02 07:41:17;;;;;;;6.10;1.45;;;;;;;;;;5062027;28;20684;-70
2023/06/02 07:43:44;;;;;;;6.90;1.90;;;;;;;;;;5063232;28;20044;-70
2023/06/02 07:46:10;;;;;;;5.95;1.80;;;;;;;;;;5061893;28;20056;-70
2023/06/02 07:48:36;;;;;;;9.63;1.65;;;;;;;;;;5062383;28;20047;-70
2023/06/02 07:51:03;;;;;;;5.30;1.50;;;;;;;;;;5064435;28;20079;-70
2023/06/02 07:53:29;;;;;;;5.03;1.70;;;;;;;;;;5062418;28;20047;-70
2023/06/02 07:55:56;;;;;;;8.98;1.70;;;;;;;;;;5063303;28;20047;-70
2023/06/02 07:58:22;;;;;;;5.30;1.55;;;;;;;;;;5063399;28;20043;-70
2023/06/02 08:00:48;;;;;;;12.05;1.77;;;;;;;;;;5062400;28;20064;-70
2023/06/02 08:03:15;;;;;;;6.97;1.70;;;;;;;;;;5064290;28;20539;-71
2023/06/02 08:05:42;;;;;;;12.80;1.73;;;;;;;;;;5061388;28;20051;-70
2023/06/02 08:08:09;;;;;;;9.73;1.80;;;;;;;;;;5063962;28;20058;-70
2023/06/02 08:10:35;;;;;;;6.22;1.50;;;;;;;;;;5061687;28;20031;-70
2023/06/02 08:13:01;;;;;;;11.52;1.77;;;;;;;;;;5061072;28;20044;-70
2023/06/02 08:15:28;;;;;;;5.88;1.95;;;;;;;;;;5059567;28;20120;-70
2023/06/02 08:17:54;;;;;;;8.55;1.85;;;;;;;;;;5063892;28;20482;-70
2023/06/02 08:20:20;;;;;;;5.90;1.65;;;;;;;;;;5064250;28;20040;-70
2023/06/02 08:22:47;;;;;;;9.38;1.60;;;;;;;;;;5064470;28;20040;-70
2023/06/02 08:25:14;;;;;;;7.88;1.73;;;;;;;;;;5064949;28;20051;-70
2023/06/02 08:27:44;;;;;;;8.93;1.90;;;;;;;;;;5064408;28;20122;-70
2023/06/02 08:30:11;;;;;;;9.50;1.83;;;;;;;;;;5065326;28;20044;-70
2023/06/02 08:32:37;;;;;;;6.57;1.88;;;;;;;;;;5061749;28;20053;-70
2023/06/02 08:35:03;;;;;;;5.15;1.73;;;;;;;;;;5064955;28;20073;-70
2023/06/02 08:37:31;;;;;;;6.40;1.70;;;;;;;;;;5064182;28;20044;-70
2023/06/02 08:39:58;;;;;;;8.07;1.70;;;;;;;;;;5065336;28;20054;-70
2023/06/02 08:42:25;;;;;;;8.20;1.13;;;;;;;;;;5062195;28;20111;-70
2023/06/02 08:44:52;;;;;;;9.70;2.08;;;;;;;;;;5065083;28;20052;-70
2023/06/02 08:47:21;;;;;;;6.43;1.70;;;;;;;;;;5062394;28;20044;-70
2023/06/02 08:49:47;;;;;;;7.70;1.85;;;;;;;;;;5061138;28;20105;-69
2023/06/02 08:52:20;;;;;;;11.68;2.15;;;;;;;;;;5062009;28;20041;-70
2023/06/02 08:54:46;;;;;;;6.22;1.63;;;;;;;;;;5060992;28;20179;-70
2023/06/02 08:57:16;;;;;;;6.03;1.55;;;;;;;;;;5061041;28;20097;-71
2023/06/02 08:59:45;;;;;;;7.93;2.05;;;;;;;;;;5062223;28;20040;-70
2023/06/02 09:02:11;;;;;;;11.82;2.00;;;;;;;;;;5056837;28;20048;-70
2023/06/02 09:04:37;;;;;;;5.53;1.75;;;;;;;;;;5059556;28;20149;-70
2023/06/02 09:07:24;;;;;;;7.93;1.42;;;;;;;;;;5066682;28;20488;-70
2023/06/02 09:09:54;;;;;;;8.50;1.98;;;;;;;;;;5065511;28;20127;-70
2023/06/02 09:12:20;;;;;;;9.80;1.75;;;;;;;;;;5058221;28;20058;-70
2023/06/02 09:14:47;;;;;;;11.48;2.47;;;;;;;;;;5042915;28;20040;-70
2023/06/02 09:17:27;;;;;;;7.28;1.70;;;;;;;;;;5060140;28;20043;-70
2023/06/02 09:19:54;;;;;;;7.70;1.95;;;;;;;;;;5060312;28;20490;-70
2023/06/02 09:22:21;;;;;;;8.80;2.03;;;;;;;;;;5058901;28;20135;-70
2023/06/02 09:24:47;;;;;;;5.50;1.50;;;;;;;;;;5060983;28;20373;-70
2023/06/02 09:27:14;;;;;;;6.88;1.40;;;;;;;;;;5062198;28;20039;-70
2023/06/02 09:29:41;;;;;;;9.90;2.00;;;;;;;;;;5066583;28;20780;-70
2023/06/02 09:32:14;;;;;;;6.93;1.60;;;;;;;;;;5080655;28;20044;-70
2023/06/02 09:34:40;;;;;;;7.07;1.67;;;;;;;;;;5067151;28;21951;-70
2023/06/02 09:37:10;;;;;;;4.18;1.60;;;;;;;;;;5046849;28;20072;-70
2023/06/02 09:39:43;;;;;;;6.97;2.10;;;;;;;;;;5059840;28;20036;-71
2023/06/02 09:42:11;;;;;;;6.53;1.83;;;;;;;;;;5062034;28;20121;-70
2023/06/02 09:44:38;;;;;;;7.85;1.67;;;;;;;;;;5060002;28;20300;-71
2023/06/02 09:47:18;;;;;;;4.60;1.58;;;;;;;;;;5059106;28;20039;-71
2023/06/02 09:49:44;;;;;;;11.77;1.92;;;;;;;;;;5058775;28;20460;-71
2023/06/02 09:52:11;;;;;;;6.82;1.90;;;;;;;;;;5064487;28;20041;-71
2023/06/02 09:54:37;;;;;;;10.20;2.03;;;;;;;;;;5063105;28;20058;-71
2023/06/02 09:57:03;;;;;;;6.57;1.80;;;;;;;;;;5068907;28;20040;-71
2023/06/02 09:59:30;;;;;;;6.90;1.75;;;;;;;;;;5065368;28;20043;-71
2023/06/02 10:01:56;;;;;;;9.55;2.58;;;;;;;;;;5067024;28;20249;-71
2023/06/02 10:04:22;;;;;;;13.82;2.33;;;;;;;;;;5060103;28;20093;-71
2023/06/02 10:06:48;;;;;;;8.20;2.35;;;;;;;;;;5062262;28;20051;-71
2023/06/02 10:09:36;;;;;;;6.18;2.13;;;;;;;;;;5066791;28;20143;-71
2023/06/02 10:12:17;;;;;;;8.60;2.45;;;;;;;;;;5065378;28;20079;-71
2023/06/02 10:14:47;;;;;;;5.65;2.28;;;;;;;;;;5068878;28;20057;-71
2023/06/02 10:17:37;;;;;;;13.18;2.25;;;;;;;;;;5066064;28;20048;-72
2023/06/02 10:20:18;;;;;;;9.10;2.13;;;;;;;;;;5019875;28;20056;-71
2023/06/02 10:23:03;;;;;;;9.43;2.90;;;;;;;;;;5067279;28;20044;-71
2023/06/02 10:25:52;;;;;;;8.45;2.42;;;;;;;;;;5064371;28;20048;-71
2023/06/02 10:28:18;;;;;;;13.00;2.92;;;;;;;;;;5065875;28;20134;-71
2023/06/02 10:30:45;;;;;;;9.50;2.88;;;;;;;;;;5064442;28;20540;-71
2023/06/02 10:33:11;;;;;;;9.05;2.67;;;;;;;;;;5066119;28;20054;-71
2023/06/02 10:35:57;;;;;;;12.68;3.28;;;;;;;;;;5066595;28;20036;-71
2023/06/02 10:38:24;;;;;;;11.98;2.90;;;;;;;;;;5066712;28;20047;-71
2023/06/02 10:40:52;;;;;;;14.75;3.50;;;;;;;;;;5068931;28;20052;-71
2023/06/02 10:43:18;;;;;;;14.02;3.10;;;;;;;;;;5067130;28;20396;-71
2023/06/02 10:45:44;;;;;;;9.30;2.70;;;;;;;;;;5069596;28;20048;-71
2023/06/02 10:48:29;;;;;;;16.85;2.67;;;;;;;;;;5068920;28;20044;-71
2023/06/02 10:50:55;;;;;;;15.32;4.05;;;;;;;;;;5060755;28;20134;-71
2023/06/02 10:53:21;;;;;;;13.18;3.70;;;;;;;;;;5065921;28;20742;-71
2023/06/02 10:55:47;;;;;;;20.10;3.45;;;;;;;;;;5067787;28;20073;-72
2023/06/02 10:58:14;;;;;;;11.25;2.78;;;;;;;;;;5061466;28;20044;-71
2023/06/02 11:00:44;;;;;;;14.38;3.42;;;;;;;;;;5065846;28;20079;-72
2023/06/02 11:03:22;;;;;;;9.25;3.40;;;;;;;;;;5065709;28;20059;-72
2023/06/02 11:05:54;;;;;;;7.53;3.20;;;;;;;;;;5065718;28;20693;-72
2023/06/02 11:08:21;;;;;;;8.30;2.85;;;;;;;;;;5065820;28;20078;-72
2023/06/02 11:10:50;;;;;;;13.27;4.00;;;;;;;;;;5065734;28;20075;-72
2023/06/02 11:13:16;;;;;;;10.80;3.00;;;;;;;;;;5065799;28;20166;-73
2023/06/02 11:16:03;;;;;;;8.63;2.65;;;;;;;;;;5065291;28;20048;-72
2023/06/02 11:18:31;;;;;;;13.27;3.33;;;;;;;;;;5056462;28;20182;-72
2023/06/02 11:20:58;;;;;;;8.60;3.00;;;;;;;;;;5067042;28;20218;-72
2023/06/02 11:23:25;;;;;;;11.60;3.10;;;;;;;;;;5066022;28;20104;-72
2023/06/02 11:26:11;;;;;;;12.88;3.63;;;;;;;;;;5067005;28;20127;-72
2023/06/02 11:28:37;;;;;;;8.40;3.38;;;;;;;;;;5065656;28;21962;-72
2023/06/02 11:31:22;;;;;;;11.60;3.90;;;;;;;;;;5064085;28;20131;-72
2023/06/02 11:33:49;;;;;;;15.65;3.28;;;;;;;;;;5064900;28;20258;-71
2023/06/02 11:36:16;;;;;;;13.27;3.03;;;;;;;;;;5066989;28;20051;-71
2023/06/02 11:38:43;;;;;;;13.60;3.38;;;;;;;;;;5066162;28;20044;-72
2023/06/02 11:41:13;;;;;;;14.68;3.75;;;;;;;;;;5058084;28;20218;-73
2023/06/02 11:43:40;;;;;;;15.55;3.70;;;;;;;;;;5059038;28;20806;-72
2023/06/02 11:46:10;;;;;;;9.63;3.13;;;;;;;;;;5043585;28;20054;-72
2023/06/02 11:48:38;;;;;;;7.93;3.33;;;;;;;;;;5061202;28;21466;-72
2023/06/02 11:51:05;;;;;;;10.63;3.30;;;;;;;;;;5063902;28;21019;-72
2023/06/02 11:53:31;;;;;;;16.05;3.55;;;;;;;;;;5066382;28;20048;-72
2023/06/02 11:55:57;;;;;;;10.73;3.50;;;;;;;;;;5066160;28;20047;-72
2023/06/02 11:58:26;;;;;;;16.20;3.38;;;;;;;;;;5062853;28;20054;-72
2023/06/02 12:00:53;;;;;;;11.57;3.25;;;;;;;;;;5061683;28;20917;-72
2023/06/02 12:03:19;;;;;;;9.85;2.85;;;;;;;;;;5061070;28;20102;-72
2023/06/02 12:05:47;;;;;;;9.68;3.05;;;;;;;;;;5062760;28;20120;-72
2023/06/02 12:08:22;;;;;;;14.00;4.40;;;;;;;;;;5063491;28;20440;-72
2023/06/02 12:10:48;;;;;;;12.68;3.33;;;;;;;;;;5062139;28;20222;-72
2023/06/02 12:13:24;;;;;;;14.35;3.53;;;;;;;;;;5064729;28;20048;-72
2023/06/02 12:15:50;;;;;;;13.15;4.15;;;;;;;;;;5061561;28;20535;-72
2023/06/02 12:18:27;;;;;;;10.52;3.83;;;;;;;;;;5062116;28;21460;-72
2023/06/02 12:20:53;;;;;;;7.20;3.13;;;;;;;;;;5063910;28;20035;-72
2023/06/02 12:23:19;;;;;;;11.68;3.33;;;;;;;;;;5048196;28;20412;-72
2023/06/02 12:25:56;;;;;;;19.38;4.13;;;;;;;;;;5063906;28;20972;-72
2023/06/02 12:28:23;;;;;;;10.57;3.13;;;;;;;;;;5064410;28;20048;-72
2023/06/02 12:30:49;;;;;;;13.50;4.32;;;;;;;;;;5062881;28;20036;-72
2023/06/02 12:33:16;;;;;;;8.38;3.80;;;;;;;;;;5060045;28;20053;-72
2023/06/02 12:35:42;;;;;;;10.70;4.03;;;;;;;;;;5061802;28;20062;-73
2023/06/02 12:38:09;;;;;;;9.20;4.07;;;;;;;;;;5061809;28;20040;-73
2023/06/02 12:40:40;;;;;;;10.68;3.97;;;;;;;;;;5062057;28;20046;-72
2023/06/02 12:43:06;;;;;;;8.55;4.00;;;;;;;;;;5062388;28;20067;-72
2023/06/02 12:45:33;;;;;;;11.20;4.13;;;;;;;;;;5063278;28;20097;-73
2023/06/02 12:47:59;;;;;;;10.95;4.78;;;;;;;;;;5075750;28;20047;-73
2023/06/02 12:50:29;;;;;;;10.45;3.97;;;;;;;;;;5070612;28;20051;-73
2023/06/02 12:52:56;;;;;;;10.30;4.50;;;;;;;;;;5063774;28;20044;-72
2023/06/02 12:55:22;;;;;;;7.30;3.80;;;;;;;;;;5065539;28;20132;-73
2023/06/02 12:57:48;;;;;;;9.05;4.32;;;;;;;;;;5063914;28;20178;-72
2023/06/02 13:00:15;;;;;;;9.32;4.30;;;;;;;;;;5062920;28;20052;-72
2023/06/02 13:02:44;;;;;;;12.77;4.70;;;;;;;;;;5066396;28;20055;-73
2023/06/02 13:05:10;;;;;;;10.77;4.75;;;;;;;;;;5069872;28;20121;-72
2023/06/02 13:07:37;;;;;;;9.70;4.47;;;;;;;;;;5066793;28;20058;-73
2023/06/02 13:10:04;;;;;;;12.52;5.03;;;;;;;;;;5070285;28;20048;-72
2023/06/02 13:12:31;;;;;;;14.10;4.45;;;;;;;;;;5066123;28;20044;-72
2023/06/02 13:14:57;;;;;;;12.30;5.80;;;;;;;;;;5050679;28;20044;-72
2023/06/02 13:17:23;;;;;;;9.60;4.65;;;;;;;;;;5066254;28;20113;-73
2023/06/02 13:19:49;;;;;;;8.82;4.28;;;;;;;;;;5066587;28;20044;-72
2023/06/02 13:22:15;;;;;;;9.57;4.13;;;;;;;;;;5063661;28;20051;-72
2023/06/02 13:24:41;;;;;;;14.27;4.43;;;;;;;;;;5060248;28;20051;-73
2023/06/02 13:27:08;;;;;;;8.40;3.72;;;;;;;;;;5066153;28;20148;-73
2023/06/02 13:29:34;;;;;;;8.48;3.63;;;;;;;;;;5062370;28;20476;-73
2023/06/02 13:32:01;;;;;;;11.23;4.03;;;;;;;;;;5065963;28;20051;-73
2023/06/02 13:34:31;;;;;;;7.20;3.30;;;;;;;;;;5065456;28;20128;-72
2023/06/02 13:36:57;;;;;;;9.05;3.60;;;;;;;;;;5065899;28;20040;-73
2023/06/02 13:39:23;;;;;;;6.13;3.28;;;;;;;;;;5064443;28;20036;-73
2023/06/02 13:41:49;;;;;;;7.28;2.80;;;;;;;;;;5066942;28;20114;-78
2023/06/02 13:44:19;;;;;;;8.05;2.83;;;;;;;;;;5065482;28;20040;-78
2023/06/02 13:46:51;;;;;;;5.10;2.42;;;;;;;;;;5066377;28;20132;-78
2023/06/02 13:49:19;;;;;;;11.32;2.78;;;;;;;;;;5066073;28;20047;-74
2023/06/02 13:51:49;;;;;;;16.42;3.30;;;;;;;;;;5063856;28;20051;-78
2023/06/02 13:54:18;;;;;;;11.38;2.90;;;;;;;;;;5066150;28;20040;-80
2023/06/02 13:56:46;;;;;;;8.18;3.40;;;;;;;;;;5066469;28;20043;-79
2023/06/02 13:59:13;;;;;;;6.15;2.67;;;;;;;;;;5064860;28;20051;-79
2023/06/02 14:01:40;;;;;;;10.93;2.45;;;;;;;;;;5067301;28;20460;-79
2023/06/02 14:04:10;;;;;;;7.25;2.67;;;;;;;;;;5065780;28;20333;-80
2023/06/02 14:06:36;;;;;;;9.65;3.35;;;;;;;;;;5065904;28;20071;-80
2023/06/02 14:09:06;;;;;;;5.30;2.53;;;;;;;;;;5043275;28;20054;-80
2023/06/02 14:11:33;;;;;;;5.05;2.33;;;;;;;;;;5062934;28;20059;-80
2023/06/02 14:13:59;;;;;;;8.90;2.80;;;;;;;;;;5055468;28;20051;-80
2023/06/02 14:16:26;;;;;;;6.72;2.45;;;;;;;;;;5059796;28;20036;-79
2023/06/02 14:18:52;;;;;;;6.72;2.47;;;;;;;;;;5060154;28;20440;-79
2023/06/02 14:21:18;;;;;;;8.80;2.80;;;;;;;;;;5057441;28;20032;-79
2023/06/02 14:23:45;;;;;;;9.73;2.50;;;;;;;;;;5058039;28;20776;-79
2023/06/02 14:26:11;;;;;;;8.90;2.20;;;;;;;;;;5054150;28;20048;-79
2023/06/02 14:28:37;;;;;;;4.03;2.20;;;;;;;;;;5057679;28;20136;-81
2023/06/02 14:31:03;;;;;;;8.30;2.30;;;;;;;;;;5059639;28;20055;-79
2023/06/02 14:33:29;;;;;;;5.47;2.40;;;;;;;;;;5058294;28;20492;-80
2023/06/02 14:35:55;;;;;;;11.43;2.50;;;;;;;;;;5059134;28;20106;-80